Time;durP1;ratioP1;P1;durP2;ratioP2;P2;SDS_P1;SDS_P2;PMS_P1;PMS_P2;Temp;Humidity;BMP_temperature;BMP_pressure;BME280_temperature;BME280_humidity;BME280_pressure;Samples;Min_cycle;Max_cycle;Signal;HPM_P1;HPM_P2
2022/03/31 00:00:31;;;;;;;6.35;3.67;;;23.20;99.90;;;;;;4998285;28;20033;-67
2022/03/31 00:02:59;;;;;;;4.20;3.15;;;23.40;99.90;;;;;;5001699;28;20121;-66
2022/03/31 00:05:26;;;;;;;5.50;3.63;;;23.50;99.90;;;;;;5003063;28;20101;-67
2022/03/31 00:07:56;;;;;;;9.35;3.83;;;23.30;99.90;;;;;;5000456;28;20021;-69
2022/03/31 00:10:27;;;;;;;6.80;3.53;;;23.20;99.90;;;;;;4998064;28;20448;-68
2022/03/31 00:12:56;;;;;;;5.60;3.50;;;23.10;99.90;;;;;;4998643;28;20030;-65
2022/03/31 00:15:25;;;;;;;6.72;3.47;;;23.10;99.90;;;;;;5005003;28;20022;-68
2022/03/31 00:17:52;;;;;;;8.75;3.15;;;23.20;99.90;;;;;;5004024;28;20037;-67
2022/03/31 00:20:19;;;;;;;12.65;3.95;;;23.20;99.90;;;;;;5000236;28;20484;-64
2022/03/31 00:22:46;;;;;;;9.77;3.70;;;23.20;99.90;;;;;;4999832;28;20023;-63
2022/03/31 00:25:13;;;;;;;7.05;3.88;;;23.10;99.90;;;;;;5001013;28;20030;-64
2022/03/31 00:27:41;;;;;;;8.63;3.90;;;22.80;99.90;;;;;;4999114;28;20053;-68
2022/03/31 00:30:14;;;;;;;7.18;3.90;;;22.70;99.90;;;;;;4998481;28;20022;-68
2022/03/31 00:32:42;;;;;;;7.47;3.63;;;22.50;99.90;;;;;;5001350;28;20506;-68
2022/03/31 00:35:13;;;;;;;10.15;5.70;;;22.20;99.90;;;;;;5000431;28;20018;-68
2022/03/31 00:37:47;;;;;;;5.28;3.05;;;22.10;99.90;;;;;;4998280;28;20470;-67
2022/03/31 00:40:16;;;;;;;9.75;3.97;;;22.00;99.90;;;;;;4996519;28;20042;-67
2022/03/31 00:42:46;;;;;;;5.65;3.60;;;22.00;99.90;;;;;;5000486;28;20119;-63
2022/03/31 00:45:13;;;;;;;9.80;4.00;;;21.90;99.90;;;;;;4999705;28;20491;-66
2022/03/31 00:47:40;;;;;;;4.38;3.28;;;21.90;99.90;;;;;;4999704;28;20030;-64
2022/03/31 00:50:09;;;;;;;9.77;3.83;;;21.90;99.90;;;;;;4998974;28;20041;-65
2022/03/31 00:52:36;;;;;;;6.70;3.05;;;21.90;99.90;;;;;;5001150;28;20094;-66
2022/03/31 00:55:04;;;;;;;6.68;3.10;;;21.90;99.90;;;;;;5002267;28;20034;-64
2022/03/31 00:57:34;;;;;;;5.20;3.33;;;21.80;99.90;;;;;;4999301;28;20030;-67
2022/03/31 01:00:01;;;;;;;6.40;3.28;;;21.70;99.90;;;;;;4997230;28;20028;-68
2022/03/31 01:02:31;;;;;;;7.90;3.80;;;21.70;99.90;;;;;;5001104;28;20038;-66
2022/03/31 01:05:00;;;;;;;6.25;3.42;;;21.90;99.90;;;;;;5000649;28;20010;-66
2022/03/31 01:07:28;;;;;;;6.32;3.45;;;22.00;99.90;;;;;;5001779;28;20438;-66
2022/03/31 01:09:58;;;;;;;7.85;3.10;;;22.20;99.90;;;;;;5002577;28;20053;-66
2022/03/31 01:12:25;;;;;;;5.05;2.75;;;22.10;99.90;;;;;;5002166;28;20021;-67
2022/03/31 01:15:14;;;;;;;6.38;2.35;;;21.90;99.90;;;;;;5004312;28;20580;-66
2022/03/31 01:17:44;;;;;;;6.57;2.85;;;21.80;99.90;;;;;;5004442;28;20022;-66
2022/03/31 01:20:15;;;;;;;5.63;2.92;;;21.70;99.90;;;;;;5004252;28;20418;-66
2022/03/31 01:22:43;;;;;;;4.35;2.55;;;21.70;99.90;;;;;;5005207;28;20091;-71
2022/03/31 01:25:11;;;;;;;8.25;2.83;;;21.70;99.90;;;;;;4994571;28;20019;-66
2022/03/31 01:27:40;;;;;;;7.13;2.67;;;21.40;99.90;;;;;;5001282;28;20545;-68
2022/03/31 01:30:16;;;;;;;6.13;2.55;;;21.30;99.90;;;;;;4993761;28;20139;-66
2022/03/31 01:32:45;;;;;;;8.02;3.58;;;21.30;99.90;;;;;;4991310;28;20385;-67
2022/03/31 01:35:13;;;;;;;8.75;3.13;;;21.20;99.90;;;;;;4991924;28;20038;-66
2022/03/31 01:37:40;;;;;;;6.28;3.47;;;20.90;99.90;;;;;;4992099;28;20074;-66
2022/03/31 01:40:08;;;;;;;6.85;3.03;;;20.80;99.90;;;;;;4991990;28;20026;-67
2022/03/31 01:42:35;;;;;;;8.18;3.20;;;20.90;99.90;;;;;;4992567;28;20106;-67
2022/03/31 01:45:05;;;;;;;9.98;3.50;;;21.10;99.90;;;;;;4996023;28;20497;-65
2022/03/31 01:47:32;;;;;;;7.22;2.92;;;21.10;99.90;;;;;;4993185;28;20097;-66
2022/03/31 01:50:01;;;;;;;8.07;3.88;;;21.10;99.90;;;;;;4998925;28;20041;-67
2022/03/31 01:52:29;;;;;;;8.25;3.58;;;20.90;99.90;;;;;;4993882;28;20026;-66
2022/03/31 01:54:56;;;;;;;8.30;3.67;;;20.90;99.90;;;;;;4998164;28;20019;-67
2022/03/31 01:57:23;;;;;;;8.73;3.03;;;20.80;99.90;;;;;;4992825;28;20104;-67
2022/03/31 01:59:50;;;;;;;13.32;3.83;;;20.70;99.90;;;;;;4994476;28;20022;-69
2022/03/31 02:02:17;;;;;;;8.82;3.55;;;20.60;99.90;;;;;;4993612;28;20393;-65
2022/03/31 02:04:44;;;;;;;8.88;3.20;;;20.40;99.90;;;;;;4995093;28;20078;-65
2022/03/31 02:07:11;;;;;;;7.95;3.67;;;20.30;99.90;;;;;;4993186;28;20022;-70
2022/03/31 02:09:38;;;;;;;5.07;2.15;;;20.00;99.90;;;;;;4992051;28;20105;-68
2022/03/31 02:12:06;;;;;;;4.35;2.13;;;19.80;99.90;;;;;;4993949;28;20019;-69
2022/03/31 02:14:37;;;;;;;5.28;2.58;;;19.60;99.90;;;;;;4991273;28;20019;-73
2022/03/31 02:17:08;;;;;;;4.50;2.58;;;19.20;99.90;;;;;;4996822;28;20386;-68
2022/03/31 02:19:36;;;;;;;7.03;2.95;;;19.10;99.90;;;;;;5001448;28;20519;-67
2022/03/31 02:22:04;;;;;;;8.38;3.60;;;19.00;99.90;;;;;;4994956;28;20026;-68
2022/03/31 02:24:31;;;;;;;10.25;4.35;;;18.90;99.90;;;;;;4994009;28;20019;-68
2022/03/31 02:26:58;;;;;;;7.45;3.58;;;18.90;99.90;;;;;;4993780;28;20030;-69
2022/03/31 02:29:26;;;;;;;7.22;4.15;;;18.90;99.90;;;;;;4996641;28;20022;-68
2022/03/31 02:31:53;;;;;;;8.63;4.22;;;19.00;99.90;;;;;;4995877;28;20036;-68
2022/03/31 02:34:19;;;;;;;8.07;3.97;;;19.00;99.90;;;;;;4996388;28;20058;-69
2022/03/31 02:36:46;;;;;;;8.50;3.45;;;19.10;99.90;;;;;;4999076;28;20042;-69
2022/03/31 02:39:13;;;;;;;10.35;5.05;;;19.10;99.90;;;;;;4998251;28;20030;-68
2022/03/31 02:41:40;;;;;;;10.68;3.80;;;19.20;99.90;;;;;;4993929;28;20018;-69
2022/03/31 02:44:07;;;;;;;9.25;3.75;;;19.40;99.90;;;;;;4999383;28;20038;-68
2022/03/31 02:46:35;;;;;;;5.47;3.17;;;19.50;99.90;;;;;;5002339;28;20116;-68
2022/03/31 02:49:02;;;;;;;7.32;3.20;;;19.70;99.90;;;;;;4995030;28;20041;-68
2022/03/31 02:51:28;;;;;;;5.97;3.50;;;19.70;99.90;;;;;;4992024;28;20584;-68
2022/03/31 02:56:41;;;;;;;7.03;3.67;;;19.90;99.90;;;;;;4993525;28;20057;-67
2022/03/31 02:59:08;;;;;;;5.53;3.25;;;19.90;99.90;;;;;;4993757;28;20041;-68
2022/03/31 03:01:35;;;;;;;7.95;3.47;;;19.90;99.90;;;;;;4998239;28;20027;-69
2022/03/31 03:04:02;;;;;;;8.68;3.42;;;19.90;99.90;;;;;;4994424;28;20112;-69
2022/03/31 03:06:29;;;;;;;8.00;3.78;;;19.80;99.90;;;;;;4992422;28;20025;-68
2022/03/31 03:08:56;;;;;;;8.52;3.53;;;19.80;99.90;;;;;;5004870;28;20192;-68
2022/03/31 03:11:23;;;;;;;7.32;3.42;;;19.80;99.90;;;;;;4306962;28;10000706;-69
2022/03/31 03:13:50;;;;;;;6.28;3.55;;;19.80;99.90;;;;;;4996414;28;20025;-68
2022/03/31 03:16:17;;;;;;;8.95;3.08;;;19.80;99.90;;;;;;4991264;28;20062;-68
2022/03/31 03:18:44;;;;;;;6.70;3.35;;;19.80;99.90;;;;;;5002498;28;20036;-68
2022/03/31 03:21:11;;;;;;;6.18;3.25;;;19.90;99.90;;;;;;4997827;28;20019;-68
2022/03/31 03:23:40;;;;;;;6.70;4.10;;;19.90;99.90;;;;;;4992753;28;20026;-68
2022/03/31 03:26:07;;;;;;;11.23;3.38;;;20.10;99.90;;;;;;4995693;28;20102;-68
2022/03/31 03:28:36;;;;;;;9.85;4.13;;;20.20;99.90;;;;;;4996927;28;20029;-68
2022/03/31 03:31:04;;;;;;;17.90;5.28;;;20.30;99.90;;;;;;4998384;28;20105;-68
2022/03/31 03:33:31;;;;;;;14.05;4.68;;;20.20;99.90;;;;;;4996815;28;20638;-70
2022/03/31 03:36:00;;;;;;;15.43;5.05;;;19.90;99.90;;;;;;4989155;28;20436;-69
2022/03/31 03:38:27;;;;;;;15.95;4.50;;;19.70;99.90;;;;;;4988050;28;20051;-69
2022/03/31 03:40:55;;;;;;;17.20;5.32;;;19.50;99.90;;;;;;4988994;28;20049;-69
2022/03/31 03:43:21;;;;;;;15.70;4.75;;;19.20;99.90;;;;;;5001876;28;20022;-69
2022/03/31 03:45:49;;;;;;;17.25;5.93;;;19.00;99.90;;;;;;4992367;28;20381;-69
2022/03/31 03:48:16;;;;;;;18.38;5.15;;;19.00;99.90;;;;;;5002621;28;20026;-68
2022/03/31 03:50:44;;;;;;;19.98;6.57;;;19.20;99.90;;;;;;4995697;28;20451;-67
2022/03/31 03:53:11;;;;;;;17.80;4.97;;;19.30;99.90;;;;;;5004045;28;20037;-66
2022/03/31 03:55:38;;;;;;;15.80;5.43;;;19.40;99.90;;;;;;4988997;28;20045;-67
2022/03/31 03:58:06;;;;;;;20.48;5.65;;;19.60;99.90;;;;;;4990923;28;20019;-66
2022/03/31 04:00:33;;;;;;;22.50;5.43;;;19.70;99.90;;;;;;4987686;28;20456;-66
2022/03/31 04:03:00;;;;;;;18.58;4.88;;;19.70;99.90;;;;;;4988738;28;20402;-68
2022/03/31 04:05:27;;;;;;;18.98;5.82;;;19.70;99.90;;;;;;4996852;28;20033;-67
2022/03/31 04:07:54;;;;;;;19.08;4.97;;;19.80;99.90;;;;;;4989182;28;20030;-65
2022/03/31 04:10:21;;;;;;;22.38;5.55;;;19.80;99.90;;;;;;4991211;28;20026;-67
2022/03/31 04:12:49;;;;;;;17.77;4.78;;;19.80;99.90;;;;;;4991677;28;20038;-68
2022/03/31 04:15:16;;;;;;;12.68;4.47;;;19.60;99.90;;;;;;4990170;28;20451;-66
2022/03/31 04:17:43;;;;;;;20.38;5.15;;;19.30;99.90;;;;;;4994993;28;20101;-67
2022/03/31 04:20:13;;;;;;;19.08;4.78;;;19.20;99.90;;;;;;4987913;28;20421;-67
2022/03/31 04:22:41;;;;;;;17.05;4.95;;;19.10;99.90;;;;;;4988479;28;20045;-68
2022/03/31 04:25:10;;;;;;;16.10;4.55;;;19.10;99.90;;;;;;4993724;28;20062;-67
2022/03/31 04:27:39;;;;;;;18.52;4.80;;;19.30;99.90;;;;;;4995565;28;20030;-68
2022/03/31 04:30:09;;;;;;;16.40;4.38;;;19.30;99.90;;;;;;4989724;28;20037;-69
2022/03/31 04:32:37;;;;;;;21.10;5.60;;;19.10;99.90;;;;;;4990755;28;20033;-65
2022/03/31 04:35:06;;;;;;;14.10;3.97;;;18.90;99.90;;;;;;4995247;28;20053;-68
2022/03/31 04:37:34;;;;;;;20.38;4.63;;;18.90;99.90;;;;;;5003446;28;20046;-69
2022/03/31 04:40:03;;;;;;;26.27;5.28;;;19.00;99.90;;;;;;4989513;28;20031;-67
2022/03/31 04:42:30;;;;;;;17.52;4.18;;;19.40;99.90;;;;;;5000507;28;20454;-67
2022/03/31 04:44:58;;;;;;;16.58;3.70;;;19.70;99.90;;;;;;4996137;28;20026;-67
2022/03/31 04:47:25;;;;;;;16.38;4.00;;;20.00;99.90;;;;;;4996139;28;21014;-68
2022/03/31 04:49:51;;;;;;;14.00;4.88;;;20.20;99.90;;;;;;4988300;28;20619;-66
2022/03/31 04:52:18;;;;;;;17.10;4.72;;;20.40;99.90;;;;;;4987213;28;20045;-68
2022/03/31 04:54:46;;;;;;;20.58;4.72;;;20.70;99.90;;;;;;4996867;28;20054;-68
2022/03/31 04:57:14;;;;;;;16.92;3.70;;;21.20;99.90;;;;;;4988145;28;20089;-67
2022/03/31 04:59:42;;;;;;;16.33;4.32;;;21.50;99.90;;;;;;4989244;28;20121;-67
2022/03/31 05:02:11;;;;;;;18.75;4.60;;;21.40;99.90;;;;;;4986843;28;20495;-68
2022/03/31 05:04:38;;;;;;;14.07;4.05;;;21.50;99.90;;;;;;4992111;28;20427;-66
2022/03/31 05:07:06;;;;;;;17.23;3.95;;;21.30;99.90;;;;;;4996877;28;20014;-67
2022/03/31 05:09:33;;;;;;;11.60;4.03;;;21.30;99.90;;;;;;4997920;28;20478;-65
2022/03/31 05:12:00;;;;;;;17.02;5.38;;;21.60;99.90;;;;;;4992951;28;20540;-67
2022/03/31 05:14:27;;;;;;;17.98;4.60;;;21.90;99.90;;;;;;4999021;28;20072;-67
2022/03/31 05:16:54;;;;;;;21.02;5.32;;;21.90;99.90;;;;;;5000495;28;20101;-67
2022/03/31 05:19:21;;;;;;;14.27;4.05;;;21.50;99.90;;;;;;4995723;28;20032;-67
2022/03/31 05:21:48;;;;;;;17.13;4.18;;;21.40;99.90;;;;;;5008933;28;20060;-67
2022/03/31 05:24:15;;;;;;;19.08;4.85;;;21.40;99.90;;;;;;4995779;28;20080;-67
2022/03/31 05:26:43;;;;;;;17.33;5.10;;;21.20;99.90;;;;;;4994286;28;20023;-66
2022/03/31 05:29:09;;;;;;;20.52;4.07;;;20.90;99.90;;;;;;4996411;28;20030;-65
2022/03/31 05:31:36;;;;;;;15.15;3.80;;;20.70;99.90;;;;;;5005936;28;20053;-67
2022/03/31 05:34:03;;;;;;;9.82;2.90;;;20.40;99.90;;;;;;5000058;28;20018;-67
2022/03/31 05:36:30;;;;;;;19.73;4.47;;;20.20;99.90;;;;;;4989545;28;20452;-67
2022/03/31 05:38:57;;;;;;;8.50;3.08;;;20.10;99.90;;;;;;4987368;28;20050;-67
2022/03/31 05:41:25;;;;;;;9.13;2.67;;;19.80;99.90;;;;;;4993997;28;20054;-68
2022/03/31 05:43:53;;;;;;;8.23;2.60;;;19.00;99.90;;;;;;4986452;28;20022;-68
2022/03/31 05:46:22;;;;;;;10.02;3.00;;;18.10;99.90;;;;;;4989557;28;20093;-69
2022/03/31 05:48:50;;;;;;;13.77;2.95;;;17.80;99.90;;;;;;4992971;28;20141;-68
2022/03/31 05:51:17;;;;;;;11.63;3.30;;;17.80;99.90;;;;;;4994458;28;20026;-68
2022/03/31 05:53:45;;;;;;;12.13;2.80;;;17.90;99.90;;;;;;4990739;28;20050;-67
2022/03/31 05:56:12;;;;;;;15.60;4.05;;;18.00;99.90;;;;;;5002558;28;20404;-66
2022/03/31 05:58:39;;;;;;;16.65;3.35;;;18.20;99.90;;;;;;4991110;28;20500;-67
2022/03/31 06:01:06;;;;;;;12.27;3.08;;;18.10;99.90;;;;;;4998679;28;20554;-67
2022/03/31 06:03:33;;;;;;;9.18;3.00;;;18.10;99.90;;;;;;5001876;28;20138;-69
2022/03/31 06:06:00;;;;;;;11.75;2.88;;;18.00;99.90;;;;;;4999976;28;20440;-68
2022/03/31 06:08:27;;;;;;;11.63;3.03;;;17.90;99.90;;;;;;4997249;28;20022;-66
2022/03/31 06:10:55;;;;;;;10.07;2.67;;;18.00;99.90;;;;;;4996972;28;20563;-67
2022/03/31 06:13:26;;;;;;;10.15;2.90;;;18.00;99.90;;;;;;4995740;28;20064;-66
2022/03/31 06:15:54;;;;;;;12.07;2.78;;;18.00;99.90;;;;;;5000866;28;20195;-68
2022/03/31 06:18:26;;;;;;;10.23;2.25;;;18.00;99.90;;;;;;4993016;28;20058;-67
2022/03/31 06:20:53;;;;;;;12.43;2.90;;;17.90;99.90;;;;;;5001765;28;20061;-68
2022/03/31 06:23:22;;;;;;;14.38;3.05;;;17.70;99.90;;;;;;4999531;28;20113;-68
2022/03/31 06:25:50;;;;;;;9.82;2.42;;;17.60;99.90;;;;;;5000456;28;20054;-68
2022/03/31 06:28:17;;;;;;;11.45;2.70;;;17.70;99.90;;;;;;4999207;28;20108;-68
2022/03/31 06:30:46;;;;;;;15.07;3.10;;;17.70;99.90;;;;;;5007422;28;20045;-71
2022/03/31 06:33:18;;;;;;;11.73;3.20;;;17.70;99.90;;;;;;5018328;28;20029;-68
2022/03/31 06:35:46;;;;;;;9.85;2.75;;;17.80;99.90;;;;;;5010032;28;20443;-69
2022/03/31 06:38:12;;;;;;;18.55;3.63;;;17.70;99.90;;;;;;5006878;28;20041;-72
2022/03/31 06:40:41;;;;;;;10.38;3.05;;;17.60;99.90;;;;;;5012319;28;20606;-68
2022/03/31 06:43:08;;;;;;;11.50;2.65;;;17.50;99.90;;;;;;5017068;28;20060;-68
2022/03/31 06:45:35;;;;;;;14.68;3.30;;;17.40;99.90;;;;;;5015993;28;20069;-68
2022/03/31 06:48:04;;;;;;;11.82;2.90;;;17.40;99.90;;;;;;5016601;28;20021;-69
2022/03/31 06:50:33;;;;;;;12.23;2.78;;;17.50;99.90;;;;;;5010338;28;20070;-69
2022/03/31 06:53:00;;;;;;;14.32;3.38;;;17.60;99.90;;;;;;5003944;28;20416;-69
2022/03/31 06:55:28;;;;;;;9.20;3.25;;;17.60;99.90;;;;;;5009042;28;20021;-66
2022/03/31 06:57:55;;;;;;;10.00;2.95;;;17.70;99.90;;;;;;5009254;28;20044;-68
2022/03/31 07:00:22;;;;;;;15.82;2.75;;;17.70;99.90;;;;;;5012244;28;20026;-67
2022/03/31 07:02:49;;;;;;;11.45;3.72;;;17.70;99.90;;;;;;5012402;28;20057;-65
2022/03/31 07:05:16;;;;;;;7.63;2.60;;;17.70;99.90;;;;;;5014504;28;20030;-66
2022/03/31 07:07:43;;;;;;;10.63;2.83;;;17.80;99.90;;;;;;5010092;28;20057;-66
2022/03/31 07:10:11;;;;;;;14.27;3.17;;;17.70;99.90;;;;;;5005166;28;20021;-65
2022/03/31 07:12:41;;;;;;;13.52;3.30;;;17.70;99.90;;;;;;5003995;28;20034;-66
2022/03/31 07:15:09;;;;;;;9.57;3.22;;;17.60;99.90;;;;;;5005426;28;20173;-67
2022/03/31 07:17:37;;;;;;;12.52;2.67;;;17.50;99.90;;;;;;5005228;28;20033;-67
2022/03/31 07:20:05;;;;;;;15.40;3.40;;;17.50;99.90;;;;;;5014820;28;20417;-68
2022/03/31 07:22:36;;;;;;;13.85;3.60;;;17.50;99.90;;;;;;5006983;28;20096;-68
2022/03/31 07:25:03;;;;;;;13.05;3.47;;;17.50;99.90;;;;;;5007863;28;20022;-68
2022/03/31 07:27:30;;;;;;;13.00;3.42;;;17.50;99.90;;;;;;5005272;28;20026;-65
2022/03/31 07:29:57;;;;;;;8.63;2.42;;;17.50;99.90;;;;;;5009443;28;20018;-67
2022/03/31 07:32:25;;;;;;;12.30;3.20;;;17.50;99.90;;;;;;5008210;28;20026;-68
2022/03/31 07:34:52;;;;;;;13.93;3.20;;;17.50;99.90;;;;;;5009673;28;20493;-68
2022/03/31 07:37:19;;;;;;;15.68;3.70;;;17.50;99.90;;;;;;5010296;28;20041;-67
2022/03/31 07:39:46;;;;;;;14.70;4.22;;;17.40;99.90;;;;;;5006690;28;20029;-65
2022/03/31 07:42:14;;;;;;;12.90;3.17;;;17.40;99.90;;;;;;5004142;28;20220;-65
2022/03/31 07:44:41;;;;;;;19.48;3.85;;;17.50;99.90;;;;;;5011759;28;20053;-68
2022/03/31 07:47:09;;;;;;;14.27;3.90;;;17.50;99.90;;;;;;5005479;28;20099;-69
2022/03/31 07:49:36;;;;;;;15.88;4.10;;;17.50;99.90;;;;;;5003865;28;20030;-65
2022/03/31 07:52:04;;;;;;;18.38;3.53;;;17.50;99.90;;;;;;5003712;28;20030;-66
2022/03/31 07:54:31;;;;;;;13.93;4.05;;;17.50;99.90;;;;;;5004857;28;20022;-69
2022/03/31 07:56:58;;;;;;;13.90;3.63;;;17.50;99.90;;;;;;5012854;28;20065;-69
2022/03/31 07:59:29;;;;;;;13.88;3.20;;;17.50;99.90;;;;;;5005773;28;20052;-68
2022/03/31 08:01:56;;;;;;;12.90;3.58;;;17.50;99.90;;;;;;5005212;28;20408;-68
2022/03/31 08:04:23;;;;;;;13.60;3.47;;;17.40;99.90;;;;;;5005103;28;20030;-67
2022/03/31 08:06:50;;;;;;;12.07;3.28;;;17.40;99.90;;;;;;5011987;28;20018;-65
2022/03/31 08:09:20;;;;;;;9.15;3.45;;;17.30;99.90;;;;;;5009670;28;20567;-64
2022/03/31 08:11:49;;;;;;;13.35;2.88;;;17.30;99.90;;;;;;5008033;28;20038;-66
2022/03/31 08:14:21;;;;;;;11.98;3.35;;;17.20;99.90;;;;;;5001184;28;20072;-66
2022/03/31 08:16:49;;;;;;;12.30;3.83;;;17.20;99.90;;;;;;4998126;28;20068;-66
2022/03/31 08:19:18;;;;;;;10.48;2.88;;;17.20;99.90;;;;;;5002485;28;20022;-64
2022/03/31 08:21:49;;;;;;;22.83;6.57;;;17.10;99.90;;;;;;5003855;28;20420;-65
2022/03/31 08:24:16;;;;;;;13.18;3.28;;;17.00;99.90;;;;;;5002812;28;20487;-64
2022/03/31 08:26:46;;;;;;;15.05;3.20;;;17.00;99.90;;;;;;4999224;28;20026;-63
2022/03/31 08:29:14;;;;;;;14.55;3.40;;;17.00;99.90;;;;;;5005744;28;20865;-64
2022/03/31 08:31:41;;;;;;;14.13;4.10;;;16.90;99.90;;;;;;5003959;28;20040;-66
2022/03/31 08:34:08;;;;;;;11.15;3.28;;;16.90;99.90;;;;;;5003303;28;20086;-64
2022/03/31 08:36:35;;;;;;;14.82;3.08;;;16.80;99.90;;;;;;5007004;28;20044;-64
2022/03/31 08:39:05;;;;;;;12.05;3.10;;;16.80;99.90;;;;;;5005030;28;20121;-64
2022/03/31 08:41:32;;;;;;;15.30;4.82;;;16.80;99.90;;;;;;5002425;28;20072;-64
2022/03/31 08:44:00;;;;;;;17.92;3.25;;;16.70;99.90;;;;;;5002042;28;20045;-63
2022/03/31 08:46:35;;;;;;;13.30;3.28;;;16.70;99.90;;;;;;5002692;28;20038;-65
2022/03/31 08:49:03;;;;;;;13.00;3.88;;;16.70;99.90;;;;;;5022624;28;20811;-64
2022/03/31 08:51:30;;;;;;;11.98;2.92;;;16.60;99.90;;;;;;5007008;28;20018;-65
2022/03/31 08:53:57;;;;;;;10.30;2.80;;;16.60;99.90;;;;;;5005693;28;20029;-65
2022/03/31 08:56:24;;;;;;;14.02;3.35;;;16.60;99.90;;;;;;5005601;28;20060;-66
2022/03/31 08:58:51;;;;;;;12.77;3.30;;;16.50;99.90;;;;;;5011106;28;20034;-65
2022/03/31 09:01:17;;;;;;;14.23;3.65;;;16.50;99.90;;;;;;5002467;28;20028;-64
2022/03/31 09:03:45;;;;;;;14.98;3.70;;;16.60;99.90;;;;;;5000749;28;20569;-66
2022/03/31 09:06:23;;;;;;;12.63;3.15;;;16.60;99.90;;;;;;4997683;28;20022;-66
2022/03/31 09:09:00;;;;;;;15.20;2.97;;;16.70;99.90;;;;;;4999834;28;20034;-64
2022/03/31 09:11:32;;;;;;;6.78;2.40;;;16.70;99.90;;;;;;5004358;28;20025;-66
2022/03/31 09:14:00;;;;;;;;;;;16.60;99.90;;;;;;5003812;28;20068;-68
2022/03/31 09:16:43;;;;;;;12.85;2.85;;;16.60;99.90;;;;;;5005352;28;19960;-68
2022/03/31 09:19:10;;;;;;;;;;;16.60;99.90;;;;;;5009518;28;20032;-72
2022/03/31 09:21:58;;;;;;;8.15;2.63;;;16.60;99.90;;;;;;4998929;28;19917;-72
2022/03/31 09:24:27;;;;;;;9.02;3.05;;;16.50;99.90;;;;;;5007301;28;20030;-67
2022/03/31 09:26:58;;;;;;;7.35;2.30;;;16.60;99.90;;;;;;5003833;28;20057;-67
2022/03/31 09:29:27;;;;;;;10.50;2.83;;;16.50;99.90;;;;;;5006690;28;20744;-68
2022/03/31 09:32:06;;;;;;;12.10;2.92;;;16.40;99.90;;;;;;5018842;28;20037;-65
2022/03/31 09:34:44;;;;;;;7.70;2.17;;;16.50;99.90;;;;;;5006047;28;20029;-68
2022/03/31 09:37:12;;;;;;;13.10;3.22;;;16.50;99.90;;;;;;5013588;28;20554;-67
2022/03/31 09:39:40;;;;;;;10.35;2.78;;;16.40;99.90;;;;;;5014903;28;20041;-68
2022/03/31 09:42:12;;;;;;;12.55;3.03;;;16.40;99.90;;;;;;5008005;28;20030;-67
2022/03/31 09:44:42;;;;;;;7.95;2.25;;;16.30;99.90;;;;;;5009139;28;20037;-68
2022/03/31 09:47:09;;;;;;;8.65;2.10;;;16.30;99.90;;;;;;5008618;28;20516;-66
2022/03/31 09:49:36;;;;;;;10.90;2.75;;;16.40;99.90;;;;;;5008824;28;20037;-67
2022/03/31 09:52:08;;;;;;;14.27;2.90;;;16.40;99.90;;;;;;5006101;28;20091;-67
2022/03/31 09:54:35;;;;;;;7.53;2.40;;;16.50;99.90;;;;;;5005272;28;20509;-67
2022/03/31 09:57:07;;;;;;;10.52;2.78;;;16.50;99.90;;;;;;5011425;28;20022;-66
2022/03/31 09:59:36;;;;;;;8.90;2.33;;;16.40;99.90;;;;;;5004379;28;20033;-68
2022/03/31 10:02:04;;;;;;;10.13;2.22;;;16.50;99.90;;;;;;5010866;28;20022;-68
2022/03/31 10:04:32;;;;;;;10.48;3.50;;;16.50;99.90;;;;;;5008183;28;20103;-67
2022/03/31 10:06:59;;;;;;;12.43;2.97;;;16.60;99.90;;;;;;5006029;28;20026;-68
2022/03/31 10:09:26;;;;;;;10.48;2.45;;;16.60;99.90;;;;;;5007670;28;20139;-65
2022/03/31 10:12:19;;;;;;;12.52;2.35;;;16.70;99.90;;;;;;5006631;28;20037;-68
2022/03/31 10:15:02;;;;;;;10.43;3.15;;;16.70;99.90;;;;;;5015438;28;20059;-67
2022/03/31 10:17:30;;;;;;;5.40;1.63;;;16.60;99.90;;;;;;5008326;28;20484;-67
2022/03/31 10:20:14;;;;;;;8.15;1.98;;;16.70;99.90;;;;;;5005040;28;20087;-66
2022/03/31 10:25:42;;;;;;;8.45;2.55;;;16.60;99.90;;;;;;5012150;28;20027;-67
2022/03/31 10:28:19;;;;;;;10.88;3.20;;;16.60;99.90;;;;;;5002499;28;20534;-67
2022/03/31 10:30:57;;;;;;;14.95;3.63;;;16.60;99.90;;;;;;5013154;28;20112;-67
2022/03/31 10:33:37;;;;;;;10.55;3.40;;;16.60;99.90;;;;;;5016781;28;20065;-66
2022/03/31 10:38:34;;;;;;;7.45;2.47;;;16.60;99.90;;;;;;5049111;23;20085;-67
2022/03/31 10:41:12;;;;;;;10.52;2.85;;;16.60;99.90;;;;;;5015708;28;20447;-67
2022/03/31 10:43:52;;;;;;;14.55;2.70;;;16.50;99.90;;;;;;5010587;28;20088;-68
2022/03/31 10:46:20;;;;;;;9.55;2.28;;;16.50;99.90;;;;;;5017468;28;20399;-69
2022/03/31 10:48:53;;;;;;;10.43;2.33;;;16.40;99.90;;;;;;5012995;28;20524;-67
2022/03/31 10:51:35;;;;;;;9.80;2.75;;;16.40;99.90;;;;;;5020418;28;20026;-67
2022/03/31 10:54:03;;;;;;;9.98;2.65;;;16.30;99.90;;;;;;5008634;28;20033;-68
2022/03/31 10:56:31;;;;;;;8.30;2.33;;;16.30;99.90;;;;;;5015159;28;20032;-67
2022/03/31 10:59:03;;;;;;;7.55;2.50;;;16.20;99.90;;;;;;5020579;28;20063;-68
2022/03/31 11:01:40;;;;;;;8.13;2.50;;;16.20;99.90;;;;;;5009575;28;20022;-66
2022/03/31 11:04:12;;;;;;;8.00;1.80;;;16.20;99.90;;;;;;5009826;28;20030;-66
2022/03/31 11:06:51;;;;;;;10.38;2.38;;;16.10;99.90;;;;;;5013397;28;20036;-68
2022/03/31 11:09:22;;;;;;;12.18;2.25;;;16.10;99.90;;;;;;5016545;28;20374;-67
2022/03/31 11:11:51;;;;;;;6.78;2.28;;;16.00;99.90;;;;;;5013832;28;20025;-67
2022/03/31 11:14:18;;;;;;;9.10;2.03;;;15.90;99.90;;;;;;5007651;28;20240;-65
2022/03/31 11:16:46;;;;;;;8.82;2.10;;;15.90;99.90;;;;;;5014214;28;20034;-66
2022/03/31 11:19:13;;;;;;;10.88;2.25;;;15.80;99.90;;;;;;5019463;28;20033;-66
2022/03/31 11:21:45;;;;;;;9.70;2.60;;;15.70;99.90;;;;;;5021695;28;20017;-64
2022/03/31 11:24:12;;;;;;;14.20;2.13;;;15.70;99.90;;;;;;5017053;28;20022;-65
2022/03/31 11:26:43;;;;;;;8.70;2.10;;;15.60;99.90;;;;;;5016972;28;20076;-67
2022/03/31 11:29:16;;;;;;;8.43;1.63;;;15.50;99.90;;;;;;5013364;28;20072;-64
2022/03/31 11:31:47;;;;;;;6.43;2.33;;;15.50;99.90;;;;;;5001599;28;20029;-66
2022/03/31 11:34:30;;;;;;;10.15;2.00;;;15.40;99.90;;;;;;5016452;28;20092;-65
2022/03/31 11:36:57;;;;;;;;;;;15.40;99.90;;;;;;5013121;28;20057;-70
2022/03/31 11:39:28;;;;;;;8.27;2.13;;;15.40;99.90;;;;;;5023327;28;19932;-68
2022/03/31 11:41:57;;;;;;;6.82;1.70;;;15.40;99.90;;;;;;5012825;28;20527;-66
2022/03/31 11:44:31;;;;;;;7.57;1.65;;;15.30;99.90;;;;;;5016651;28;20025;-68
2022/03/31 11:46:58;;;;;;;10.25;2.17;;;15.30;99.90;;;;;;5017184;28;20018;-67
2022/03/31 11:49:27;;;;;;;6.32;1.48;;;15.30;99.90;;;;;;5008714;28;20025;-66
2022/03/31 11:52:01;;;;;;;6.10;1.98;;;15.30;99.90;;;;;;5013716;28;20025;-66
2022/03/31 11:54:30;;;;;;;12.07;2.30;;;15.30;99.90;;;;;;5009984;28;20091;-66
2022/03/31 11:57:09;;;;;;;6.18;2.00;;;15.20;99.90;;;;;;5017932;28;20500;-66
2022/03/31 11:59:38;;;;;;;6.35;1.70;;;15.30;99.90;;;;;;5008207;28;20072;-66
2022/03/31 12:02:18;;;;;;;4.43;1.20;;;15.30;99.90;;;;;;5022365;28;20025;-65
2022/03/31 12:04:47;;;;;;;7.32;1.40;;;15.30;99.90;;;;;;5030283;28;20440;-66
2022/03/31 12:07:19;;;;;;;9.07;1.65;;;15.30;99.90;;;;;;5014446;28;20046;-65
2022/03/31 12:09:47;;;;;;;6.70;1.25;;;15.30;99.90;;;;;;5011363;28;20022;-66
2022/03/31 12:12:15;;;;;;;5.28;1.77;;;15.30;99.90;;;;;;5017583;28;20286;-65
2022/03/31 12:14:53;;;;;;;7.50;1.77;;;15.40;99.90;;;;;;5012789;28;20018;-65
2022/03/31 12:17:21;;;;;;;4.93;1.15;;;15.40;99.90;;;;;;5016329;28;20028;-66
2022/03/31 12:19:48;;;;;;;5.07;1.30;;;15.50;99.90;;;;;;5012712;28;20032;-65
2022/03/31 12:22:18;;;;;;;4.07;0.95;;;15.40;99.90;;;;;;5015942;28;20045;-65
2022/03/31 12:24:48;;;;;;;5.07;1.35;;;15.40;99.90;;;;;;5019771;28;20500;-65
2022/03/31 12:27:17;;;;;;;4.07;1.45;;;15.40;99.90;;;;;;5014354;28;20022;-66
2022/03/31 12:29:45;;;;;;;3.78;1.15;;;15.50;99.90;;;;;;5013924;28;20124;-66
2022/03/31 12:32:15;;;;;;;5.07;1.30;;;15.50;99.90;;;;;;5018431;28;20436;-65
2022/03/31 12:34:59;;;;;;;4.38;1.20;;;15.50;99.90;;;;;;5023151;28;20048;-65
2022/03/31 12:37:37;;;;;;;6.60;1.67;;;15.60;99.90;;;;;;5020263;28;20036;-65
2022/03/31 12:40:09;;;;;;;3.92;1.33;;;15.70;99.90;;;;;;5018348;28;20504;-64
2022/03/31 12:42:38;;;;;;;7.05;1.38;;;15.60;99.90;;;;;;5013286;28;20026;-65
2022/03/31 12:45:15;;;;;;;3.15;1.33;;;15.60;99.90;;;;;;5024283;28;20134;-64
2022/03/31 12:47:44;;;;;;;4.28;1.30;;;15.70;99.90;;;;;;5026775;28;20063;-64
2022/03/31 12:50:23;;;;;;;6.55;1.38;;;15.60;99.90;;;;;;5020766;28;20128;-66
2022/03/31 12:53:02;;;;;;;7.60;1.27;;;15.60;99.90;;;;;;5013009;28;20026;-67
2022/03/31 12:55:31;;;;;;;5.45;1.55;;;15.50;99.90;;;;;;5023932;28;20028;-65
2022/03/31 12:58:00;;;;;;;5.65;1.70;;;15.50;99.90;;;;;;5021425;28;20029;-66
2022/03/31 13:00:28;;;;;;;5.03;1.35;;;15.60;99.90;;;;;;5009536;28;20014;-65